Aérodrome :
LOGIN :

S'inscrire | Disclaimer

   EN    FR    IT 

 










Légende :    VFR   VFR Marginal   IFR   IFR Intensif   IFR Très Intensif
Visi : 
Plafond : 
>= 8 km
>= 3000ft
5 à 8 km
1000 à 3000 ft
1500m à 5 km
500 à 1000 ft
800 à 1500m
200 à 500 ft
< 800m
< 200 ft
Symboles :   Orages  Brouillard  Fortes neiges  Fortes précipitations  Vent > 20 kt
SIGMETs :   Divers  Orages  Givrage  Turbulence  Onde Orograph.  Cendres Volcan.






- Altitude de l'aérodrome : 461 ft
- Code IATA : WIE


ETOU - Wiesbaden Army

DERNIER METAR :
  • 051856Z 18005KT 0600 FZFG SCT000 M02/M02 A3019 RMK SLP237 P0000 T10181019 RVRNO $

METARs EXPIRÉS :
  • 051806Z AUTO 19004KT 0400 FZDZ FZFG VV000 M02/M02 A3020 RMK AO2 FZDZB1757 SLP240 RVRNO $
  • 051757Z 20004KT 0400 FZFG VV000 M02/M02 A3020 RMK FZDZB38 SLP239 P0000 60000 T10161017 11013 21018 51003 RVRNO $
  • 051656Z AUTO 00000KT 0400 FZFG VV000 M02/M02 A3019 RMK AO2 SLP236 T10171018 RVRNO

TAF TAF ETOU
Valide du 05 à 12h jusqu'au 06 à 18h UTC


051204Z 0512/0618 21006KT 0200 FZFG VV001 620001 QNH3008INS
TEMPO 0512/0518 1000 BR BKN006
BECMG 0600/0601 20006KT 3000 BR BKN010 QNH3003INS
BECMG 0616/0617 21012G18KT 8000 -SHRA OVC015 QNH2986INS TX04/0612Z TNM03/0606Z



MET'MAP, la Météo Aéronautique d'un coup d'oeil ! - Copyright ORBIFLY Décembre 2007 - Disclaimer

ORBIFLY MET'MAP TEAM :

Programmation & Développement : Alexandra Zaïnal
Sur une idée originale de : Baudouin d'Aumeries
Assistance à la programmation : Marc-Olivier Méhu
Soutien technique & logistique : Manuel Goepfert

Contact : metmap@orbifly.com




SOURCES & CREDITS :

   NOAA